Time;durP1;ratioP1;P1;durP2;ratioP2;P2;SDS_P1;SDS_P2;PMS_P1;PMS_P2;Temp;Humidity;BMP_temperature;BMP_pressure;BME280_temperature;BME280_humidity;BME280_pressure;Samples;Min_cycle;Max_cycle;Signal;HPM_P1;HPM_P2
2022/08/17 00:01:07;;;;;;;28.85;21.20;;;21.20;99.90;;;;;;5034014;28;20059;-71
2022/08/17 00:03:37;;;;;;;23.92;21.42;;;21.20;99.90;;;;;;5032817;28;20052;-72
2022/08/17 00:06:24;;;;;;;23.30;20.83;;;21.20;99.90;;;;;;5032691;28;20045;-71
2022/08/17 00:08:59;;;;;;;23.30;20.80;;;21.20;99.90;;;;;;5032712;28;20049;-72
2022/08/17 00:11:27;;;;;;;23.45;20.90;;;21.10;99.90;;;;;;5032597;28;20112;-72
2022/08/17 00:13:59;;;;;;;24.17;21.50;;;21.10;99.90;;;;;;5032564;28;20044;-72
2022/08/17 00:16:38;;;;;;;24.50;21.92;;;21.10;99.90;;;;;;5032578;28;20148;-71
2022/08/17 00:19:09;;;;;;;23.73;21.30;;;21.10;99.90;;;;;;5033052;28;20037;-72
2022/08/17 00:21:37;;;;;;;24.95;22.40;;;21.10;99.90;;;;;;5032784;28;20045;-72
2022/08/17 00:24:03;;;;;;;24.42;21.63;;;21.00;99.90;;;;;;5033683;28;20037;-72
2022/08/17 00:26:28;;;;;;;25.25;22.65;;;21.00;99.90;;;;;;5032300;28;20487;-71
2022/08/17 00:28:54;;;;;;;24.52;22.05;;;20.90;99.90;;;;;;5015858;28;20033;-71
2022/08/17 00:31:21;;;;;;;26.27;23.77;;;20.90;99.90;;;;;;5032449;28;20090;-72
2022/08/17 00:33:47;;;;;;;23.95;21.65;;;20.80;99.90;;;;;;5032561;28;20042;-72
2022/08/17 00:36:15;;;;;;;23.50;21.10;;;20.80;99.90;;;;;;5032040;28;20403;-71
2022/08/17 00:38:40;;;;;;;23.15;20.95;;;20.70;99.90;;;;;;5032252;28;20041;-72
2022/08/17 00:41:12;;;;;;;23.95;20.85;;;20.70;99.90;;;;;;5032142;28;20117;-72
2022/08/17 00:43:39;;;;;;;23.52;21.35;;;20.60;99.90;;;;;;5032410;28;20044;-71
2022/08/17 00:46:13;;;;;;;25.90;21.55;;;20.60;99.90;;;;;;5032174;28;20409;-71
2022/08/17 00:48:39;;;;;;;24.40;21.83;;;20.50;99.90;;;;;;5032081;28;20033;-71
2022/08/17 00:51:38;;;;;;;23.33;20.92;;;20.40;99.90;;;;;;5032026;28;20095;-71
2022/08/17 00:54:28;;;;;;;26.05;23.33;;;20.40;99.90;;;;;;5031931;28;20441;-72
2022/08/17 00:57:00;;;;;;;26.65;24.05;;;20.40;99.90;;;;;;5031932;28;20069;-71
2022/08/17 00:59:30;;;;;;;25.98;23.48;;;20.40;99.90;;;;;;5032208;28;20045;-71
2022/08/17 01:01:57;;;;;;;27.50;24.88;;;20.40;99.90;;;;;;5032190;28;20045;-72
2022/08/17 01:04:24;;;;;;;26.20;23.52;;;20.40;99.90;;;;;;5032165;28;20037;-72
2022/08/17 01:06:50;;;;;;;27.52;24.60;;;20.40;99.90;;;;;;5032052;28;20041;-72
2022/08/17 01:09:17;;;;;;;26.70;23.83;;;20.40;99.90;;;;;;5032357;28;20076;-72
2022/08/17 01:11:45;;;;;;;28.05;25.15;;;20.40;99.90;;;;;;5032007;28;20140;-72
2022/08/17 01:14:10;;;;;;;26.60;24.10;;;20.40;99.90;;;;;;5035289;28;20045;-71
2022/08/17 01:16:37;;;;;;;27.15;24.55;;;20.40;99.90;;;;;;5035872;28;20033;-71
2022/08/17 01:19:15;;;;;;;25.80;21.35;;;20.40;99.90;;;;;;5037146;28;20438;-71
2022/08/17 01:22:09;;;;;;;23.27;21.10;;;20.40;99.90;;;;;;5036174;28;20049;-72
2022/08/17 01:24:38;;;;;;;24.00;21.55;;;20.40;99.90;;;;;;5036043;28;20049;-72
2022/08/17 01:27:05;;;;;;;23.63;21.33;;;20.30;99.90;;;;;;5035948;28;20083;-72
2022/08/17 01:29:31;;;;;;;24.67;22.02;;;20.30;99.90;;;;;;5035702;28;20053;-71
2022/08/17 01:32:02;;;;;;;25.98;23.45;;;20.30;99.90;;;;;;5035779;28;20413;-72
2022/08/17 01:34:28;;;;;;;27.45;21.95;;;20.20;99.90;;;;;;5035633;28;20121;-72
2022/08/17 01:36:53;;;;;;;24.17;22.05;;;20.20;99.90;;;;;;5035293;28;20124;-71
2022/08/17 01:39:52;;;;;;;22.20;20.08;;;20.20;99.90;;;;;;5035503;28;20073;-72
2022/08/17 01:42:41;;;;;;;21.95;20.05;;;20.20;99.90;;;;;;5035742;28;20049;-72
2022/08/17 01:45:17;;;;;;;22.42;20.63;;;20.20;99.90;;;;;;5035255;28;20107;-72
2022/08/17 01:47:43;;;;;;;23.00;20.90;;;20.10;99.90;;;;;;5035344;28;20044;-71
2022/08/17 01:50:13;;;;;;;22.90;20.80;;;20.10;99.90;;;;;;5035300;28;20041;-71
2022/08/17 01:52:39;;;;;;;23.33;21.33;;;20.10;99.90;;;;;;5035220;28;20096;-71
2022/08/17 01:55:06;;;;;;;24.65;22.30;;;20.10;99.90;;;;;;5035207;28;20088;-71
2022/08/17 01:57:32;;;;;;;23.85;21.63;;;20.10;99.90;;;;;;5035149;28;20081;-71
2022/08/17 01:59:58;;;;;;;26.77;24.00;;;20.00;99.90;;;;;;5035094;28;20073;-72
2022/08/17 02:02:24;;;;;;;25.92;23.35;;;20.00;99.90;;;;;;5035366;28;20460;-72
2022/08/17 02:04:49;;;;;;;25.85;23.33;;;20.00;99.90;;;;;;5035033;28;20125;-72
2022/08/17 02:07:16;;;;;;;25.02;22.73;;;20.00;99.90;;;;;;5035190;28;20099;-71
2022/08/17 02:09:42;;;;;;;25.33;23.02;;;20.00;99.90;;;;;;5034991;28;20505;-71
2022/08/17 02:12:08;;;;;;;26.08;23.48;;;20.00;99.90;;;;;;5035030;28;20041;-72
2022/08/17 02:14:34;;;;;;;26.88;24.10;;;20.00;99.90;;;;;;5018675;28;20120;-72
2022/08/17 02:17:00;;;;;;;25.75;23.15;;;20.00;99.90;;;;;;5035003;28;20224;-71
2022/08/17 02:19:25;;;;;;;23.90;21.58;;;20.00;99.90;;;;;;5034968;28;20116;-71
2022/08/17 02:21:52;;;;;;;24.40;22.08;;;20.00;99.90;;;;;;5034729;28;20405;-72
2022/08/17 02:24:22;;;;;;;25.45;23.02;;;19.90;99.90;;;;;;5034396;28;20378;-72
2022/08/17 02:26:48;;;;;;;26.35;22.95;;;19.90;99.90;;;;;;5018075;28;20045;-71
2022/08/17 02:29:14;;;;;;;26.05;23.65;;;19.90;99.90;;;;;;5034569;28;20041;-71
2022/08/17 02:31:42;;;;;;;24.30;22.08;;;19.90;99.90;;;;;;5034438;28;20041;-72
2022/08/17 02:34:07;;;;;;;23.98;21.63;;;19.90;99.90;;;;;;5034497;28;20044;-72
2022/08/17 02:36:34;;;;;;;22.60;20.63;;;19.80;99.90;;;;;;5035562;28;20045;-71
2022/08/17 02:39:10;;;;;;;22.90;20.63;;;19.80;99.90;;;;;;5034448;28;20051;-72
2022/08/17 02:41:37;;;;;;;23.80;21.80;;;19.90;99.90;;;;;;5034653;28;20445;-72
2022/08/17 02:44:05;;;;;;;21.73;19.80;;;19.80;99.90;;;;;;5034559;28;20524;-72
2022/08/17 02:46:31;;;;;;;22.65;20.65;;;19.80;99.90;;;;;;5035459;28;20507;-71
2022/08/17 02:48:57;;;;;;;22.92;20.92;;;19.80;99.90;;;;;;5034175;28;20456;-71
2022/08/17 02:51:24;;;;;;;24.25;22.17;;;19.80;99.90;;;;;;5034123;28;20037;-71
2022/08/17 02:53:49;;;;;;;23.45;21.33;;;19.70;99.90;;;;;;5034135;28;20386;-72
2022/08/17 02:56:15;;;;;;;24.23;22.13;;;19.70;99.90;;;;;;5034010;28;20040;-71
2022/08/17 02:58:40;;;;;;;23.48;21.60;;;19.70;99.90;;;;;;5034276;28;20045;-71
2022/08/17 03:01:08;;;;;;;23.52;21.63;;;19.70;99.90;;;;;;5034023;28;20037;-72
2022/08/17 03:03:35;;;;;;;24.83;22.52;;;19.70;99.90;;;;;;5033992;28;20045;-72
2022/08/17 03:06:01;;;;;;;24.13;21.83;;;19.70;99.90;;;;;;5034131;28;20056;-71
2022/08/17 03:08:27;;;;;;;24.50;22.35;;;19.70;99.90;;;;;;5033928;28;20042;-72
2022/08/17 03:10:52;;;;;;;24.48;22.17;;;19.70;99.90;;;;;;5033851;28;20037;-72
2022/08/17 03:13:18;;;;;;;23.63;21.80;;;19.60;99.90;;;;;;5033776;28;20099;-72
2022/08/17 03:15:45;;;;;;;21.98;20.10;;;19.70;99.90;;;;;;5033741;28;20033;-71
2022/08/17 03:18:18;;;;;;;23.08;21.02;;;19.60;99.90;;;;;;5033639;28;20053;-71
2022/08/17 03:20:44;;;;;;;24.30;21.83;;;19.70;99.90;;;;;;5033962;28;20034;-72
2022/08/17 03:23:10;;;;;;;23.80;21.65;;;19.60;99.90;;;;;;5033797;28;20087;-72
2022/08/17 03:25:38;;;;;;;24.25;22.05;;;19.60;99.90;;;;;;5033463;28;20041;-72
2022/08/17 03:28:05;;;;;;;24.23;22.05;;;19.60;99.90;;;;;;5033379;28;20442;-71
2022/08/17 03:30:31;;;;;;;25.05;22.80;;;19.60;99.90;;;;;;5033749;28;20085;-72
2022/08/17 03:32:58;;;;;;;23.50;21.30;;;19.60;99.90;;;;;;5033327;28;20556;-72
2022/08/17 03:35:27;;;;;;;23.90;21.83;;;19.60;99.90;;;;;;5033511;28;20038;-72
2022/08/17 03:37:53;;;;;;;24.90;22.25;;;19.60;99.90;;;;;;5033897;28;20029;-71
2022/08/17 03:40:19;;;;;;;25.17;22.83;;;19.50;99.90;;;;;;5033262;28;20037;-71
2022/08/17 03:42:45;;;;;;;24.42;22.30;;;19.50;99.90;;;;;;5033218;28;20099;-71
2022/08/17 03:45:14;;;;;;;26.27;23.70;;;19.50;99.90;;;;;;5033148;28;20049;-71
2022/08/17 03:58:56;;;;;;;25.08;22.63;;;19.30;99.90;;;;;;5010602;28;20077;-72
2022/08/17 04:01:22;;;;;;;25.13;22.73;;;19.30;99.90;;;;;;5032870;28;20073;-72
2022/08/17 04:03:47;;;;;;;26.05;23.55;;;19.30;99.90;;;;;;5032789;28;20091;-72
2022/08/17 04:06:14;;;;;;;26.33;23.85;;;19.40;99.90;;;;;;5032665;28;20087;-71
2022/08/17 04:08:39;;;;;;;26.25;23.75;;;19.40;99.90;;;;;;5032987;28;20072;-72
2022/08/17 04:11:05;;;;;;;26.27;23.80;;;19.40;99.90;;;;;;5032666;28;20409;-72
2022/08/17 04:13:30;;;;;;;28.05;25.40;;;19.40;99.90;;;;;;5032553;28;20099;-72
2022/08/17 04:15:58;;;;;;;27.67;25.08;;;19.40;99.90;;;;;;5032507;28;20111;-71
2022/08/17 04:18:24;;;;;;;28.85;26.05;;;19.40;99.90;;;;;;5032553;28;20041;-71
2022/08/17 04:20:50;;;;;;;27.98;25.35;;;19.40;99.90;;;;;;5032503;28;20072;-72
2022/08/17 04:23:17;;;;;;;27.63;25.02;;;19.40;99.90;;;;;;5032488;28;20080;-72
2022/08/17 04:25:47;;;;;;;28.00;25.30;;;19.40;99.90;;;;;;5032440;28;20037;-72
2022/08/17 04:28:14;;;;;;;25.27;22.80;;;19.40;99.90;;;;;;5032347;28;20046;-71
2022/08/17 04:30:39;;;;;;;27.90;25.40;;;19.40;99.90;;;;;;5032598;28;20037;-72
2022/08/17 04:33:12;;;;;;;27.23;24.65;;;19.40;99.90;;;;;;5032176;28;20460;-72
2022/08/17 04:35:45;;;;;;;27.42;25.00;;;19.50;99.90;;;;;;5032230;28;20065;-71
2022/08/17 04:38:23;;;;;;;27.52;25.00;;;19.40;99.90;;;;;;5031999;28;20037;-71
2022/08/17 04:43:35;;;;;;;27.27;24.60;;;19.40;99.90;;;;;;5032167;28;20041;-72
2022/08/17 04:46:07;;;;;;;26.80;24.35;;;19.50;99.90;;;;;;5032004;28;20049;-71
2022/08/17 04:48:35;;;;;;;28.30;25.58;;;19.50;99.90;;;;;;5032382;28;20054;-71
2022/08/17 04:51:02;;;;;;;28.92;26.13;;;19.50;99.90;;;;;;5032081;28;20038;-72
2022/08/17 04:53:28;;;;;;;26.48;23.88;;;19.50;99.90;;;;;;5032007;28;20493;-72
2022/08/17 04:55:54;;;;;;;28.38;25.67;;;19.50;99.90;;;;;;5032024;28;20037;-72
2022/08/17 04:58:20;;;;;;;27.85;25.15;;;19.50;99.90;;;;;;5031997;28;20033;-72
2022/08/17 05:00:46;;;;;;;26.05;23.75;;;19.50;99.90;;;;;;5031948;28;20041;-72
2022/08/17 05:03:12;;;;;;;27.33;24.85;;;19.50;99.90;;;;;;5032157;28;20413;-72
2022/08/17 05:05:42;;;;;;;27.25;24.67;;;19.50;99.90;;;;;;5031858;28;20041;-71
2022/08/17 05:08:08;;;;;;;29.70;27.02;;;19.50;99.90;;;;;;5031803;28;20053;-71
2022/08/17 05:10:37;;;;;;;27.85;25.25;;;19.50;99.90;;;;;;5033056;28;20521;-71
2022/08/17 05:13:04;;;;;;;31.00;27.77;;;19.50;99.90;;;;;;5031751;28;20045;-71
2022/08/17 05:15:30;;;;;;;30.00;27.20;;;19.50;99.90;;;;;;5015667;28;20402;-71
2022/08/17 05:17:56;;;;;;;31.23;28.13;;;19.50;99.90;;;;;;5031958;28;20052;-72
2022/08/17 05:20:22;;;;;;;30.17;27.27;;;19.40;99.90;;;;;;5032027;28;20045;-71
2022/08/17 05:22:50;;;;;;;33.13;29.70;;;19.50;99.90;;;;;;5031726;28;20041;-72
2022/08/17 05:25:24;;;;;;;32.67;29.55;;;19.40;99.90;;;;;;5031856;28;20045;-71
2022/08/17 05:27:50;;;;;;;32.30;29.20;;;19.50;99.90;;;;;;5031903;28;20060;-71
2022/08/17 05:30:16;;;;;;;34.22;30.60;;;19.50;99.90;;;;;;5031614;28;20053;-71
2022/08/17 05:32:53;;;;;;;34.22;30.90;;;19.50;99.90;;;;;;5031549;28;20041;-71
2022/08/17 05:35:18;;;;;;;33.67;30.27;;;19.50;99.90;;;;;;5031871;28;20116;-71
2022/08/17 05:37:44;;;;;;;35.80;31.27;;;19.50;99.90;;;;;;5031417;28;20509;-71
2022/08/17 05:40:10;;;;;;;34.00;30.63;;;19.50;99.90;;;;;;5031578;28;20040;-71
2022/08/17 05:42:36;;;;;;;34.85;31.38;;;19.60;99.90;;;;;;5031779;28;20045;-72
2022/08/17 05:45:01;;;;;;;34.63;31.35;;;19.60;99.90;;;;;;5031748;28;20494;-74
2022/08/17 05:47:29;;;;;;;35.47;31.70;;;19.60;99.90;;;;;;5031399;28;20080;-73
2022/08/17 05:49:55;;;;;;;36.05;31.65;;;19.60;99.90;;;;;;5031441;28;20469;-73
2022/08/17 05:52:46;;;;;;;31.75;28.75;;;19.60;99.90;;;;;;5031365;28;20084;-73
2022/08/17 05:55:27;;;;;;;35.03;31.52;;;19.70;99.90;;;;;;5015297;28;20072;-74
2022/08/17 05:58:08;;;;;;;32.00;28.92;;;19.70;99.90;;;;;;5031372;28;20034;-73
2022/08/17 06:01:06;;;;;;;33.78;30.27;;;19.70;99.90;;;;;;5033998;28;20494;-73
2022/08/17 06:03:52;;;;;;;34.30;30.60;;;19.80;99.90;;;;;;5035086;28;20056;-73
2022/08/17 06:06:24;;;;;;;33.47;30.00;;;19.80;99.90;;;;;;5034986;28;20034;-73
2022/08/17 06:09:00;;;;;;;33.97;30.57;;;19.80;99.90;;;;;;5035008;28;20072;-73
2022/08/17 06:11:47;;;;;;;33.72;30.27;;;19.80;99.90;;;;;;5034854;28;20056;-73
2022/08/17 06:14:31;;;;;;;34.83;31.10;;;19.90;99.90;;;;;;5035122;28;20073;-74
2022/08/17 06:17:07;;;;;;;35.35;31.67;;;19.90;99.90;;;;;;5034769;28;20080;-73
2022/08/17 06:19:41;;;;;;;35.17;31.83;;;19.90;99.90;;;;;;5018327;28;20034;-73
2022/08/17 06:22:11;;;;;;;31.52;28.33;;;20.00;99.90;;;;;;5034725;28;20071;-73
2022/08/17 06:24:45;;;;;;;37.35;33.33;;;20.00;99.90;;;;;;5035227;28;20561;-73
2022/08/17 06:27:21;;;;;;;38.90;34.30;;;20.00;99.90;;;;;;5034861;28;20103;-73
2022/08/17 06:29:59;;;;;;;36.97;33.13;;;20.00;99.90;;;;;;5034835;28;20037;-72
2022/08/17 06:32:25;;;;;;;37.95;34.00;;;20.10;99.90;;;;;;5034447;28;20048;-74
2022/08/17 06:34:52;;;;;;;38.63;34.50;;;20.10;99.90;;;;;;5034511;28;20033;-74
2022/08/17 06:37:23;;;;;;;45.22;38.05;;;20.10;99.90;;;;;;5017766;28;20083;-73
2022/08/17 06:40:14;;;;;;;41.70;37.10;;;20.10;99.90;;;;;;5034627;28;20037;-74
2022/08/17 06:42:39;;;;;;;42.42;37.08;;;20.10;99.90;;;;;;5017926;28;20128;-75
2022/08/17 06:45:22;;;;;;;39.45;35.33;;;20.10;99.90;;;;;;5018401;28;20137;-76
2022/08/17 06:47:51;;;;;;;40.60;36.30;;;20.20;99.90;;;;;;5017866;28;20043;-76
2022/08/17 06:50:40;;;;;;;41.65;37.28;;;20.10;99.90;;;;;;5034246;28;20099;-76
2022/08/17 06:53:18;;;;;;;39.28;34.70;;;20.20;99.90;;;;;;5034084;28;20099;-75
2022/08/17 06:56:10;;;;;;;44.10;36.47;;;20.20;99.90;;;;;;5017636;28;20037;-76
2022/08/17 06:58:37;;;;;;;46.25;38.63;;;20.30;99.90;;;;;;5034052;28;20091;-74
2022/08/17 07:01:09;;;;;;;47.10;40.20;;;20.30;99.90;;;;;;5034055;28;20052;-74
2022/08/17 07:03:44;;;;;;;44.05;39.22;;;20.40;99.90;;;;;;5034042;28;20048;-74
2022/08/17 07:06:22;;;;;;;44.50;38.33;;;20.40;99.90;;;;;;5017424;28;20041;-73
2022/08/17 07:09:17;;;;;;;46.40;41.28;;;20.50;99.90;;;;;;5033910;28;20041;-73
2022/08/17 07:11:52;;;;;;;42.85;38.42;;;20.50;99.90;;;;;;5030670;28;20498;-74
2022/08/17 07:14:42;;;;;;;43.45;38.92;;;20.60;99.90;;;;;;5033903;28;20044;-74
2022/08/17 07:17:14;;;;;;;45.90;39.42;;;20.70;99.90;;;;;;5033597;28;20041;-73
2022/08/17 07:19:44;;;;;;;44.50;39.78;;;20.70;99.90;;;;;;5033673;28;20037;-73
2022/08/17 07:22:29;;;;;;;45.80;39.25;;;20.70;99.90;;;;;;5033647;28;20120;-73
2022/08/17 07:24:57;;;;;;;44.70;40.03;;;20.70;99.90;;;;;;5033669;28;20052;-74
2022/08/17 07:27:35;;;;;;;48.22;39.67;;;20.80;99.90;;;;;;5033459;28;20037;-73
2022/08/17 07:30:25;;;;;;;44.65;39.70;;;20.80;99.90;;;;;;5033530;28;20045;-74
2022/08/17 07:33:01;;;;;;;43.50;38.63;;;20.90;99.90;;;;;;5033409;28;20114;-74
2022/08/17 07:35:28;;;;;;;47.08;41.45;;;20.90;99.90;;;;;;5033428;28;20502;-74
2022/08/17 07:38:14;;;;;;;46.25;41.20;;;20.90;99.90;;;;;;5033047;28;20083;-74
2022/08/17 07:40:56;;;;;;;50.45;42.60;;;21.10;99.90;;;;;;5033309;28;20045;-74
2022/08/17 07:43:29;;;;;;;46.92;41.15;;;21.20;99.90;;;;;;5033308;28;20502;-74
2022/08/17 07:48:48;;;;;;;49.38;43.08;;;21.30;99.90;;;;;;5033071;28;20558;-73
2022/08/17 07:51:37;;;;;;;47.58;41.22;;;21.40;99.90;;;;;;5016964;28;20048;-74
2022/08/17 07:54:21;;;;;;;46.08;41.05;;;21.40;99.90;;;;;;5020971;28;20502;-74
2022/08/17 07:57:22;;;;;;;46.63;41.22;;;21.40;99.90;;;;;;5033233;28;20041;-73
2022/08/17 08:00:00;;;;;;;47.25;40.55;;;21.50;99.90;;;;;;5032673;28;20494;-72
2022/08/17 08:02:37;;;;;;;43.05;38.47;;;21.50;99.90;;;;;;5032824;28;20049;-74
2022/08/17 08:05:07;;;;;;;47.38;40.55;;;21.50;99.90;;;;;;5032961;28;20033;-73
2022/08/17 08:07:53;;;;;;;42.08;37.65;;;21.50;99.90;;;;;;5033096;28;20045;-73
2022/08/17 08:10:31;;;;;;;44.42;39.60;;;21.60;99.90;;;;;;5016541;28;20048;-73
2022/08/17 08:13:07;;;;;;;41.33;37.05;;;21.60;99.90;;;;;;5016095;28;20125;-74
2022/08/17 08:15:39;;;;;;;43.40;37.28;;;21.70;99.90;;;;;;5032536;28;20083;-73
2022/08/17 08:18:38;;;;;;;40.63;35.33;;;21.70;99.90;;;;;;5032594;28;20040;-73
2022/08/17 08:21:17;;;;;;;43.22;36.17;;;21.80;99.90;;;;;;5032550;28;20048;-73
2022/08/17 08:23:57;;;;;;;46.22;37.38;;;21.70;99.90;;;;;;5032238;28;20052;-73
2022/08/17 08:26:58;;;;;;;43.35;36.78;;;21.70;99.90;;;;;;5032431;28;20041;-72
2022/08/17 08:29:42;;;;;;;39.50;35.25;;;21.80;99.90;;;;;;5032312;28;20037;-71
2022/08/17 08:32:29;;;;;;;42.30;35.80;;;21.90;99.90;;;;;;5032266;28;20037;-71
2022/08/17 08:35:05;;;;;;;40.42;33.38;;;22.20;99.90;;;;;;5032601;28;20568;-71
2022/08/17 08:37:55;;;;;;;42.38;35.00;;;22.30;99.90;;;;;;5032055;28;20048;-71
2022/08/17 08:40:49;;;;;;;44.50;36.00;;;22.40;99.90;;;;;;5032484;28;20045;-71
2022/08/17 08:43:48;;;;;;;41.25;36.13;;;22.50;99.90;;;;;;5032445;28;20455;-71
2022/08/17 08:46:41;;;;;;;45.10;35.38;;;22.50;99.90;;;;;;5032106;28;20041;-71
2022/08/17 08:49:20;;;;;;;38.22;34.30;;;22.50;99.90;;;;;;5015885;28;20136;-71
2022/08/17 08:51:56;;;;;;;35.80;32.00;;;22.60;99.90;;;;;;5032057;28;20050;-71
2022/08/17 08:54:46;;;;;;;37.08;33.28;;;22.70;99.90;;;;;;5032023;28;20490;-72
2022/08/17 08:57:20;;;;;;;35.83;31.95;;;22.80;99.90;;;;;;5031966;28;20042;-71
2022/08/17 08:59:51;;;;;;;35.40;31.67;;;22.90;99.90;;;;;;5032266;28;20049;-71
2022/08/17 09:02:35;;;;;;;34.25;30.70;;;23.10;99.90;;;;;;5031898;28;20490;-71
2022/08/17 09:05:38;;;;;;;34.22;30.60;;;23.40;99.90;;;;;;5015467;28;20045;-71
2022/08/17 09:08:25;;;;;;;35.33;31.77;;;23.60;99.90;;;;;;5031809;28;20041;-70
2022/08/17 09:11:27;;;;;;;34.83;31.27;;;23.70;99.90;;;;;;5032122;28;20049;-71
2022/08/17 09:14:10;;;;;;;35.65;31.50;;;23.70;99.90;;;;;;5031779;28;20033;-71
2022/08/17 09:17:00;;;;;;;32.20;28.77;;;23.80;99.90;;;;;;5015285;28;20041;-70
2022/08/17 09:19:48;;;;;;;35.47;30.10;;;23.70;99.90;;;;;;5031794;28;20045;-71
2022/08/17 09:22:37;;;;;;;30.38;26.80;;;23.70;99.90;;;;;;5031755;28;20494;-71
2022/08/17 09:25:12;;;;;;;30.27;26.88;;;23.60;99.90;;;;;;5031761;28;20053;-71
2022/08/17 09:27:59;;;;;;;31.58;28.10;;;23.40;99.90;;;;;;5031620;28;20505;-71
2022/08/17 09:30:28;;;;;;;31.50;28.30;;;23.40;99.90;;;;;;5015182;28;20091;-71
2022/08/17 09:32:58;;;;;;;36.67;30.02;;;23.40;99.90;;;;;;5031587;28;20063;-71
2022/08/17 09:35:33;;;;;;;36.75;32.75;;;23.40;99.90;;;;;;5034401;28;20076;-71
2022/08/17 09:38:26;;;;;;;37.70;32.58;;;23.40;99.90;;;;;;5035753;28;20048;-71
2022/08/17 09:40:58;;;;;;;37.10;30.92;;;23.40;99.90;;;;;;5035597;28;20045;-71
2022/08/17 09:43:31;;;;;;;34.83;31.40;;;23.50;99.90;;;;;;5019005;28;20044;-71
2022/08/17 09:46:04;;;;;;;35.28;31.63;;;23.50;99.90;;;;;;5035451;28;20322;-70
2022/08/17 09:48:39;;;;;;;36.08;32.28;;;23.50;99.90;;;;;;5035337;28;20037;-71
2022/08/17 09:51:16;;;;;;;35.13;30.10;;;23.40;99.90;;;;;;5035589;28;20184;-71
2022/08/17 09:53:42;;;;;;;38.95;32.05;;;23.40;99.90;;;;;;5035258;28;20048;-73
2022/08/17 09:56:46;;;;;;;35.47;31.63;;;23.20;99.90;;;;;;5035105;28;20033;-71
2022/08/17 09:59:27;;;;;;;33.30;29.55;;;23.20;99.90;;;;;;5035385;28;20049;-73
2022/08/17 10:02:04;;;;;;;30.80;27.45;;;23.20;99.90;;;;;;5018571;28;20497;-71
2022/08/17 10:05:05;;;;;;;29.52;24.88;;;23.20;99.90;;;;;;5035125;28;20052;-71
2022/08/17 10:07:38;;;;;;;26.30;23.60;;;23.20;99.90;;;;;;5018789;28;20041;-70
2022/08/17 10:10:23;;;;;;;29.05;26.10;;;23.30;99.90;;;;;;5035330;28;20142;-71
2022/08/17 10:13:13;;;;;;;32.55;27.85;;;23.40;99.90;;;;;;5034902;28;20121;-72
2022/08/17 10:16:09;;;;;;;32.72;29.23;;;23.50;99.90;;;;;;5034902;28;20038;-71
2022/08/17 10:18:44;;;;;;;33.85;27.75;;;23.70;99.90;;;;;;5034915;28;20050;-70
2022/08/17 10:27:06;;;;;;;28.45;24.23;;;23.90;99.90;;;;;;5034712;28;20046;-71
2022/08/17 10:29:54;;;;;;;27.02;24.10;;;24.00;99.90;;;;;;5035172;28;20428;-71
2022/08/17 10:32:46;;;;;;;25.05;22.05;;;24.20;99.90;;;;;;5035762;28;20041;-71
2022/08/17 10:35:47;;;;;;;27.08;24.38;;;24.40;99.90;;;;;;5018291;28;20038;-71
2022/08/17 10:38:37;;;;;;;27.83;25.00;;;24.50;99.90;;;;;;5023552;28;20057;-71
2022/08/17 10:41:03;;;;;;;29.30;26.13;;;24.80;99.90;;;;;;5034731;28;20041;-71
2022/08/17 10:43:44;;;;;;;30.80;26.33;;;25.10;99.90;;;;;;5017865;28;20041;-71
2022/08/17 10:46:25;;;;;;;31.20;27.17;;;25.20;99.90;;;;;;5034131;28;20132;-71
2022/08/17 10:49:15;;;;;;;29.27;24.58;;;25.30;99.90;;;;;;5034339;28;20034;-71
2022/08/17 10:51:44;;;;;;;29.73;26.60;;;25.50;99.90;;;;;;5034093;28;20452;-71
2022/08/17 10:54:38;;;;;;;24.95;22.50;;;25.60;99.90;;;;;;5034214;28;20095;-71
2022/08/17 10:57:26;;;;;;;24.77;22.23;;;25.90;99.90;;;;;;5034334;28;20045;-71
2022/08/17 10:59:55;;;;;;;23.27;20.98;;;26.30;99.90;;;;;;5034322;28;20102;-71
2022/08/17 11:02:41;;;;;;;18.02;15.68;;;26.50;99.90;;;;;;5034074;28;20037;-71
2022/08/17 11:05:44;;;;;;;20.08;17.70;;;26.60;99.90;;;;;;5034046;28;20057;-71
2022/08/17 11:08:12;;;;;;;15.85;14.18;;;26.80;99.90;;;;;;5033839;28;20056;-71
2022/08/17 11:11:03;;;;;;;17.17;15.48;;;27.00;99.90;;;;;;5033854;28;20048;-71
2022/08/17 11:14:08;;;;;;;17.98;16.13;;;27.10;99.90;;;;;;5035293;28;20120;-71
2022/08/17 11:16:52;;;;;;;14.93;13.43;;;27.10;99.90;;;;;;5017255;28;20478;-72
2022/08/17 11:19:38;;;;;;;16.55;14.10;;;27.10;99.90;;;;;;5034196;28;20116;-71
2022/08/17 11:22:19;;;;;;;19.88;15.93;;;27.00;99.90;;;;;;5033766;28;20116;-71
2022/08/17 11:24:50;;;;;;;19.88;16.63;;;26.80;99.90;;;;;;5033651;28;20041;-71
2022/08/17 11:27:31;;;;;;;21.15;16.88;;;26.60;99.90;;;;;;5033797;28;20045;-71
2022/08/17 11:30:12;;;;;;;19.33;16.93;;;26.40;99.90;;;;;;5033757;28;20502;-71
2022/08/17 11:32:48;;;;;;;22.83;17.80;;;26.20;99.90;;;;;;5033605;28;20366;-71
2022/08/17 11:35:19;;;;;;;20.80;18.55;;;26.10;99.90;;;;;;5033664;28;20041;-72
2022/08/17 11:38:05;;;;;;;23.40;18.08;;;25.90;99.90;;;;;;5033189;28;20038;-72
2022/08/17 11:40:41;;;;;;;19.85;17.40;;;25.90;99.90;;;;;;5033300;28;20095;-72
2022/08/17 11:43:22;;;;;;;17.40;14.95;;;25.80;99.90;;;;;;5033305;28;20053;-72
2022/08/17 11:46:01;;;;;;;16.83;15.10;;;25.70;99.90;;;;;;5033513;28;20049;-72
2022/08/17 11:51:51;;;;;;;13.82;12.02;;;25.60;99.90;;;;;;5033080;28;20136;-73
2022/08/17 11:54:17;;;;;;;14.65;13.15;;;25.60;99.90;;;;;;5032968;28;20041;-72
2022/08/17 11:56:46;;;;;;;16.90;14.38;;;25.60;99.90;;;;;;5032456;28;20128;-72
2022/08/17 11:59:34;;;;;;;18.98;17.10;;;25.50;99.90;;;;;;5032727;28;20074;-71
2022/08/17 12:02:03;;;;;;;19.00;16.95;;;25.60;99.90;;;;;;5032874;28;20045;-72
2022/08/17 12:04:34;;;;;;;18.77;16.83;;;25.60;99.90;;;;;;5034068;28;20042;-72
2022/08/17 12:07:17;;;;;;;19.08;15.75;;;25.60;99.90;;;;;;5032652;28;20044;-72
2022/08/17 12:09:48;;;;;;;18.23;15.15;;;25.60;99.90;;;;;;5032997;28;20045;-72
2022/08/17 12:12:18;;;;;;;18.08;16.17;;;25.60;99.90;;;;;;5032848;28;20045;-72
2022/08/17 12:14:51;;;;;;;16.98;14.88;;;25.60;99.90;;;;;;5032941;28;20045;-72
2022/08/17 12:17:22;;;;;;;16.73;15.13;;;25.60;99.90;;;;;;5033170;28;20037;-72
2022/08/17 12:19:48;;;;;;;18.90;14.88;;;25.60;99.90;;;;;;5032634;28;20092;-71
2022/08/17 12:22:24;;;;;;;17.90;14.45;;;25.60;99.90;;;;;;5032699;28;20047;-72
2022/08/17 12:24:55;;;;;;;16.98;12.50;;;25.50;99.90;;;;;;5032426;28;20045;-72
2022/08/17 12:27:34;;;;;;;15.13;13.38;;;25.40;99.90;;;;;;5032333;28;20042;-72
2022/08/17 12:30:09;;;;;;;17.00;13.90;;;25.30;99.90;;;;;;5032638;28;20033;-72
2022/08/17 12:32:39;;;;;;;14.50;12.82;;;25.30;99.90;;;;;;5032569;28;20104;-72
2022/08/17 12:35:28;;;;;;;15.35;13.75;;;25.20;99.90;;;;;;5032596;28;20045;-71
2022/08/17 12:37:56;;;;;;;18.75;13.20;;;25.20;99.90;;;;;;5032666;28;20124;-72
2022/08/17 12:40:26;;;;;;;16.08;14.15;;;25.00;99.90;;;;;;5032462;28;20092;-72
2022/08/17 12:43:01;;;;;;;18.33;13.80;;;24.90;99.90;;;;;;5032225;28;20041;-70
2022/08/17 12:45:38;;;;;;;15.85;14.07;;;24.90;99.90;;;;;;5032374;28;20088;-70
2022/08/17 12:48:20;;;;;;;14.70;12.88;;;24.80;99.90;;;;;;5032086;28;20067;-70
2022/08/17 12:50:47;;;;;;;15.02;13.48;;;24.80;99.90;;;;;;5032165;28;20124;-70
2022/08/17 12:53:21;;;;;;;15.60;13.98;;;24.80;99.90;;;;;;5031966;28;20486;-70
2022/08/17 12:55:47;;;;;;;14.18;12.40;;;24.80;99.90;;;;;;5032104;28;20045;-70
2022/08/17 12:58:24;;;;;;;14.15;11.18;;;24.80;99.90;;;;;;5032085;28;20494;-70
2022/08/17 13:01:01;;;;;;;15.73;12.15;;;24.90;99.90;;;;;;5015766;28;20037;-70
2022/08/17 13:03:30;;;;;;;12.68;10.93;;;24.90;99.90;;;;;;5031937;28;20426;-70
2022/08/17 13:05:56;;;;;;;14.55;10.98;;;24.90;99.90;;;;;;5032105;28;20100;-70
2022/08/17 13:08:37;;;;;;;11.35;9.27;;;24.90;99.90;;;;;;5015271;28;20045;-70
2022/08/17 13:11:17;;;;;;;13.10;9.80;;;24.90;99.90;;;;;;5031663;28;20084;-70
2022/08/17 13:14:09;;;;;;;10.68;9.55;;;25.00;99.90;;;;;;5031758;28;20041;-70
2022/08/17 13:16:35;;;;;;;15.93;9.20;;;25.10;99.90;;;;;;5015384;28;20037;-70
2022/08/17 13:19:16;;;;;;;9.70;8.45;;;25.10;99.90;;;;;;5031787;28;20047;-70
2022/08/17 13:21:51;;;;;;;10.23;8.85;;;25.10;99.90;;;;;;5031775;28;20041;-70
2022/08/17 13:24:25;;;;;;;12.20;10.05;;;25.10;99.90;;;;;;5031812;28;20128;-70
2022/08/17 13:26:59;;;;;;;8.63;7.80;;;25.10;99.90;;;;;;5031946;28;20037;-70
2022/08/17 13:29:36;;;;;;;12.38;10.10;;;25.10;99.90;;;;;;5031946;28;20049;-70
2022/08/17 13:32:07;;;;;;;12.55;8.68;;;25.10;99.90;;;;;;5031619;28;20510;-70